Terminal Aerodrome Forecast
Issued by NWS New Orleans/Baton Rouge, LA

Home | Current Version | Previous Version | Text Only | Print | Product List | Glossary On
Versions: 1 2 3 4 5 6 7 8 9 10 11 12 13 14 15 16
000
FTUS44 KLIX 021700
TAFBTR
TAF
KBTR 021738Z 0218/0318 09003KT 1SM BR OVC002
      TEMPO 0218/0220 1/2SM FG OVC002
     FM030600 10003KT 2SM BR OVC004
     FM031600 16005KT P6SM OVC008=

USA.gov is the U.S. government's official web portal to all federal, state and local government web resources and services.